»·PEaware :: N16RD KSAN-KTRM

N16RD :: KSAN-KTRM

FLIGHT INFORMATION

Flight Status: Arrived
Operator: Privately registered:
United States
More flights under this callsign
Pilot: Brett B. (12105)
Aircraft: CESSNA 182 SKYLANE
(C182)
More flights by this aircraft type
Origin: KSAN San Diego Intl-Lindbergh
United States
Destination: KTRM Desert Resorts Regl
United States
More flights between these airports :: More routes between these airports
Route: +KSAN KTRM
File this flight plan on PilotEdge
Remarks: VFR
Altitude:
(Current/Filed)
8,000ft
Speed:
(Current/Filed)
140kts
Departed: 06-Apr-18 06:37 PM
Arrived: 06-Apr-18 07:19 PM
Distance/Time
Traveled:
75nm/0:42
Distance/Time
To Go:
Arrived

Flight Plot

Page will automatically refresh every two minutes.

Flight plan parsing failed; only flown route is shown


Map Options




Map Legend


Flown Route
Filed Route
Departure Airport
Arrival Airport
Navaid (VOR, NDB)
Fix

Horizontal Profiles

Position Reports

Time Latitude Longitude Heading Altitude Ground
Speed
06-Apr-18 18:06 32.733230 -117.181496 15 18ft 0kts
06-Apr-18 18:07 32.733230 -117.181496 15 18ft 0kts
06-Apr-18 18:08 32.733230 -117.181496 15 18ft 0kts
06-Apr-18 18:09 32.733230 -117.181496 15 18ft 0kts
06-Apr-18 18:10 32.733230 -117.181496 15 18ft 0kts
06-Apr-18 18:11 32.733230 -117.181496 15 18ft 0kts
06-Apr-18 18:12 32.733230 -117.181496 15 18ft 0kts
06-Apr-18 18:13 32.733230 -117.181496 15 18ft 0kts
06-Apr-18 18:14 32.733230 -117.181496 15 18ft 0kts
06-Apr-18 18:15 32.733230 -117.181496 15 18ft 0kts
06-Apr-18 18:16 32.733230 -117.181496 15 18ft 0kts
06-Apr-18 18:17 32.733230 -117.181496 15 18ft 0kts
06-Apr-18 18:18 32.733230 -117.181496 15 18ft 0kts
06-Apr-18 18:19 32.733230 -117.181496 15 18ft 0kts
06-Apr-18 18:20 32.733230 -117.181496 15 18ft 0kts
06-Apr-18 18:21 32.733230 -117.181496 15 18ft 0kts
06-Apr-18 18:22 32.733230 -117.181496 15 18ft 0kts
06-Apr-18 18:23 32.733230 -117.181496 15 18ft 0kts
06-Apr-18 18:24 32.733230 -117.181496 15 18ft 0kts
06-Apr-18 18:25 32.733230 -117.181496 15 18ft 0kts
06-Apr-18 18:26 32.733230 -117.181496 15 18ft 0kts
06-Apr-18 18:27 32.733230 -117.181496 15 18ft 0kts
06-Apr-18 18:28 32.733230 -117.181496 15 18ft 0kts
06-Apr-18 18:29 32.733230 -117.181496 15 18ft 0kts
06-Apr-18 18:30 32.732704 -117.180959 148 18ft 12kts
06-Apr-18 18:31 32.732043 -117.178411 105 18ft 9kts
06-Apr-18 18:32 32.731221 -117.176593 195 18ft 0kts
06-Apr-18 18:33 32.731221 -117.176593 195 18ft 0kts
06-Apr-18 18:34 32.731221 -117.176593 195 18ft 0kts
06-Apr-18 18:35 32.731221 -117.176593 195 18ft 0kts
06-Apr-18 18:36 32.732113 -117.183490 284 27ft 91kts
06-Apr-18 18:37 32.738328 -117.215141 285 1116ft 100kts
06-Apr-18 18:38 32.754131 -117.245719 301 1931ft 107kts
06-Apr-18 18:39 32.766908 -117.269568 301 2481ft 111kts
06-Apr-18 18:40 32.783641 -117.300817 301 3143ft 112kts
06-Apr-18 18:41 32.794957 -117.322080 302 3550ft 112kts
06-Apr-18 18:42 32.806532 -117.344565 301 4113ft 102kts
06-Apr-18 18:43 32.822066 -117.370208 348 4876ft 94kts
06-Apr-18 18:44 32.845332 -117.368966 350 5609ft 85kts
06-Apr-18 18:45 32.855163 -117.344607 71 6270ft 98kts
06-Apr-18 18:46 32.862018 -117.312210 43 6887ft 100kts
06-Apr-18 18:47 32.884092 -117.291425 27 7530ft 113kts
06-Apr-18 18:48 32.911146 -117.254552 47 7509ft 169kts
06-Apr-18 18:49 32.940756 -117.209669 47 7500ft 173kts
06-Apr-18 18:50 32.968946 -117.162720 51 7500ft 175kts
06-Apr-18 18:51 32.995023 -117.113538 60 7502ft 176kts
06-Apr-18 18:52 33.015605 -117.060381 62 7505ft 176kts
06-Apr-18 18:53 33.034104 -117.011627 61 8232ft 151kts
06-Apr-18 18:54 33.049620 -116.962939 80 8514ft 169kts
06-Apr-18 18:55 33.055458 -116.905344 82 8500ft 177kts
06-Apr-18 18:56 33.061277 -116.846877 82 8500ft 178kts
06-Apr-18 18:57 33.071453 -116.789512 72 8500ft 177kts
06-Apr-18 18:58 33.084788 -116.732759 72 8500ft 177kts
06-Apr-18 18:59 33.097366 -116.679230 72 8500ft 177kts
06-Apr-18 19:00 33.115736 -116.623155 25 8501ft 166kts
06-Apr-18 19:01 33.152264 -116.593598 69 8513ft 182kts
06-Apr-18 19:02 33.176601 -116.543543 42 8500ft 172kts
06-Apr-18 19:03 33.210114 -116.503131 32 8500ft 169kts
06-Apr-18 19:04 33.247238 -116.468161 31 8499ft 169kts
06-Apr-18 19:05 33.284259 -116.433426 31 8500ft 169kts
06-Apr-18 19:06 33.315101 -116.404404 31 8500ft 169kts
06-Apr-18 19:07 33.352101 -116.369561 31 8500ft 169kts
06-Apr-18 19:08 33.389235 -116.334577 31 8500ft 169kts
06-Apr-18 19:09 33.432441 -116.293844 32 8343ft 173kts
06-Apr-18 19:10 33.466515 -116.252332 85 7547ft 182kts
06-Apr-18 19:11 33.458632 -116.194566 102 6767ft 173kts
06-Apr-18 19:12 33.478650 -116.165056 0 5857ft 106kts
06-Apr-18 19:13 33.500212 -116.159907 5 4753ft 91kts
06-Apr-18 19:14 33.525866 -116.156358 3 3291ft 94kts
06-Apr-18 19:15 33.552215 -116.154824 2 1906ft 93kts
06-Apr-18 19:16 33.578231 -116.155690 356 889ft 91kts
06-Apr-18 19:17 33.603664 -116.156343 359 278ft 88kts
06-Apr-18 19:18 33.624208 -116.156401 359 -110ft 40kts
06-Apr-18 19:19 33.632497 -116.156399 359 -110ft 26kts
06-Apr-18 19:20 33.634617 -116.163111 308 -110ft 18kts
06-Apr-18 19:21 33.634776 -116.163141 98 -110ft 0kts
06-Apr-18 19:22 33.634776 -116.163141 98 -110ft 0kts
06-Apr-18 19:23 33.634776 -116.163141 98 -110ft 0kts
06-Apr-18 19:24 33.634776 -116.163141 98 -110ft 0kts
06-Apr-18 19:25 33.634776 -116.163141 98 -110ft 0kts
06-Apr-18 19:26 33.634776 -116.163141 98 -110ft 0kts
06-Apr-18 19:27 33.634776 -116.163141 98 -110ft 0kts
06-Apr-18 19:28 33.634776 -116.163141 98 -110ft 0kts
06-Apr-18 19:29 33.634776 -116.163141 98 -110ft 0kts
06-Apr-18 19:30 33.634776 -116.163141 98 -110ft 0kts
06-Apr-18 19:31 33.634776 -116.163141 98 -110ft 0kts
06-Apr-18 19:32 33.634776 -116.163141 98 -110ft 0kts

Navigation Log

Ident Type
Flight plan parsing failed, navigation log unavailable